createdAt,value
2023-05-13T00:00:37.351Z,23.65
2023-05-13T00:03:07.269Z,20.73
2023-05-13T00:05:35.322Z,24.10
2023-05-13T00:08:07.144Z,26.17
2023-05-13T00:10:41.523Z,23.55
2023-05-13T00:13:11.531Z,22.67
2023-05-13T00:15:44.426Z,23.27
2023-05-13T00:18:14.748Z,21.95
2023-05-13T00:21:05.558Z,22.02
2023-05-13T00:23:44.369Z,22.38
2023-05-13T00:26:11.418Z,20.98
2023-05-13T00:28:38.228Z,20.17
2023-05-13T00:31:08.634Z,20.55
2023-05-13T00:33:35.845Z,21.55
2023-05-13T00:36:07.124Z,19.25
2023-05-13T00:38:37.345Z,20.05
2023-05-13T00:41:06.245Z,19.10
2023-05-13T00:43:35.605Z,18.63
2023-05-13T00:46:15.474Z,19.58
2023-05-13T00:48:42.757Z,20.52
2023-05-13T00:51:10.560Z,20.98
2023-05-13T00:53:39.454Z,19.50
2023-05-13T00:56:12.562Z,22.33
2023-05-13T00:58:46.050Z,20.95
2023-05-13T01:02:16.799Z,21.65
2023-05-13T01:05:09.170Z,21.30
2023-05-13T01:08:20.225Z,20.33
2023-05-13T01:11:01.812Z,20.10
2023-05-13T01:13:43.549Z,21.60
2023-05-13T01:16:29.837Z,23.60
2023-05-13T01:19:44.474Z,24.75
2023-05-13T01:22:14.263Z,28.15
2023-05-13T01:24:46.348Z,32.47
2023-05-13T01:27:17.536Z,37.70
2023-05-13T01:29:45.931Z,39.35
2023-05-13T01:32:16.749Z,33.63
2023-05-13T01:34:49.310Z,36.75
2023-05-13T01:37:19.863Z,37.45
2023-05-13T01:39:52.222Z,36.17
2023-05-13T01:42:20.278Z,35.78
2023-05-13T01:44:47.150Z,34.88
2023-05-13T01:47:20.927Z,30.55
2023-05-13T01:49:47.654Z,32.25
2023-05-13T01:52:23.507Z,30.50
2023-05-13T01:54:58.255Z,32.33
2023-05-13T01:57:30.220Z,26.60
2023-05-13T02:00:08.202Z,23.92
2023-05-13T02:02:41.242Z,24.10
2023-05-13T02:05:20.687Z,25.13
2023-05-13T02:07:47.592Z,22.95
2023-05-13T02:10:29.376Z,23.73
2023-05-13T02:13:01.337Z,22.95
2023-05-13T02:15:28.187Z,23.80
2023-05-13T02:17:58.226Z,24.23
2023-05-13T02:20:26.386Z,21.52
2023-05-13T02:22:55.397Z,21.98
2023-05-13T02:25:22.673Z,20.13
2023-05-13T02:27:49.442Z,20.95
2023-05-13T02:30:30.390Z,20.95
2023-05-13T02:33:09.172Z,19.75
2023-05-13T02:35:39.790Z,18.73
2023-05-13T02:38:10.523Z,18.70
2023-05-13T02:40:49.659Z,22.30
2023-05-13T02:43:31.738Z,23.90
2023-05-13T02:46:02.265Z,20.55
2023-05-13T02:48:45.022Z,23.23
2023-05-13T02:51:11.793Z,24.35
2023-05-13T02:53:39.297Z,24.80
2023-05-13T02:56:11.429Z,24.80
2023-05-13T02:58:43.990Z,23.60
2023-05-13T03:01:19.589Z,23.80
2023-05-13T03:03:46.562Z,22.13
2023-05-13T03:06:21.189Z,25.00
2023-05-13T03:08:48.035Z,24.02
2023-05-13T03:11:15.001Z,24.60
2023-05-13T03:13:43.718Z,28.75
2023-05-13T03:16:11.301Z,28.55
2023-05-13T03:18:44.868Z,27.52
2023-05-13T03:21:11.967Z,28.92
2023-05-13T03:23:43.695Z,29.35
2023-05-13T03:26:10.557Z,28.55
2023-05-13T03:28:46.663Z,29.48
2023-05-13T03:31:13.793Z,28.10
2023-05-13T03:34:12.938Z,29.45
2023-05-13T03:36:43.950Z,27.27
2023-05-13T03:39:16.488Z,27.42
2023-05-13T03:41:43.531Z,27.08
2023-05-13T03:44:10.624Z,27.42
2023-05-13T03:46:40.745Z,27.80
2023-05-13T03:49:10.932Z,26.00
2023-05-13T03:51:47.656Z,27.17
2023-05-13T03:54:17.512Z,27.20
2023-05-13T03:56:47.143Z,26.05
2023-05-13T03:59:13.927Z,26.40
2023-05-13T04:01:43.263Z,27.77
2023-05-13T04:04:22.776Z,35.95
2023-05-13T04:06:53.438Z,26.42
2023-05-13T04:09:23.190Z,26.75
2023-05-13T04:11:50.230Z,26.02
2023-05-13T04:14:25.058Z,26.35
2023-05-13T04:16:51.936Z,26.23
2023-05-13T04:19:19.058Z,27.02
2023-05-13T04:21:50.563Z,25.23
2023-05-13T04:24:17.585Z,24.70
2023-05-13T04:27:01.407Z,27.42
2023-05-13T04:29:28.913Z,24.55
2023-05-13T04:31:58.741Z,23.75
2023-05-13T05:12:55.292Z,17.70
2023-05-13T05:31:45.853Z,11.25
2023-05-13T05:34:12.994Z,10.93
2023-05-13T05:36:43.081Z,12.20
2023-05-13T05:39:10.245Z,9.95
2023-05-13T05:41:37.087Z,11.40
2023-05-13T05:44:10.324Z,10.15
2023-05-13T05:46:37.237Z,9.52
2023-05-13T05:49:04.521Z,11.82
2023-05-13T05:51:31.659Z,13.55
2023-05-13T06:35:47.412Z,9.27
2023-05-13T06:57:42.982Z,7.78
2023-05-13T07:00:17.792Z,6.85
2023-05-13T07:02:47.121Z,7.28
2023-05-13T07:05:13.956Z,8.70
2023-05-13T07:07:40.674Z,7.30
2023-05-13T07:10:07.857Z,7.45
2023-05-13T07:13:20.656Z,8.75
2023-05-13T07:15:56.530Z,7.45
2023-05-13T07:18:24.046Z,7.20
2023-05-13T07:49:27.682Z,7.85
2023-05-13T09:00:13.704Z,10.52
2023-05-13T09:17:27.522Z,7.82
2023-05-13T09:19:56.949Z,7.75
2023-05-13T09:23:11.706Z,7.55
2023-05-13T09:29:38.755Z,8.18
2023-05-13T09:32:15.152Z,6.32
2023-05-13T09:36:00.516Z,6.95
2023-05-13T09:38:51.272Z,6.80
2023-05-13T09:41:27.305Z,8.40
2023-05-13T09:44:14.196Z,6.97
2023-05-13T09:46:44.359Z,6.68
2023-05-13T09:49:15.268Z,7.20
2023-05-13T09:51:58.829Z,6.05
2023-05-13T09:54:25.876Z,6.60
2023-05-13T09:57:09.265Z,6.15
2023-05-13T09:59:37.099Z,6.95
2023-05-13T10:02:08.718Z,7.95
2023-05-13T10:04:35.686Z,6.88
2023-05-13T10:07:08.841Z,6.53
2023-05-13T10:09:47.596Z,7.57
2023-05-13T10:12:15.587Z,9.27
2023-05-13T10:15:12.818Z,6.03
2023-05-13T10:18:07.672Z,7.90
2023-05-13T10:20:37.510Z,6.97
2023-05-13T10:26:44.362Z,8.27
2023-05-13T10:29:43.459Z,7.15
2023-05-13T10:32:33.471Z,6.93
2023-05-13T10:35:25.439Z,5.32
2023-05-13T10:38:16.677Z,6.65
2023-05-13T10:42:08.108Z,6.22
2023-05-13T10:44:36.396Z,8.48
2023-05-13T10:50:26.490Z,7.22
2023-05-13T10:52:59.572Z,6.80
2023-05-13T10:58:38.856Z,6.78
2023-05-13T11:01:44.456Z,7.57
2023-05-13T11:04:23.035Z,7.50
2023-05-13T11:06:55.885Z,6.65
2023-05-13T11:09:23.169Z,7.20
2023-05-13T11:12:11.063Z,8.63
2023-05-13T11:14:38.034Z,9.02
2023-05-13T11:17:14.188Z,6.30
2023-05-13T11:19:57.501Z,7.72
2023-05-13T11:22:27.210Z,6.88
2023-05-13T11:25:10.680Z,6.25
2023-05-13T11:27:43.358Z,6.95
2023-05-13T11:30:35.089Z,8.05
2023-05-13T11:33:03.209Z,7.50
2023-05-13T11:35:36.328Z,5.70
2023-05-13T11:38:06.663Z,5.45
2023-05-13T11:40:38.798Z,5.72
2023-05-13T11:43:38.351Z,6.68
2023-05-13T11:46:07.749Z,5.70
2023-05-13T11:48:36.142Z,6.10
2023-05-13T11:51:12.415Z,5.78
2023-05-13T11:53:39.862Z,8.45
2023-05-13T11:56:16.233Z,7.47
2023-05-13T11:59:05.967Z,4.82
2023-05-13T12:01:33.659Z,6.00
2023-05-13T12:04:03.515Z,6.20
2023-05-13T12:06:31.363Z,5.78
2023-05-13T12:09:07.224Z,7.00
2023-05-13T12:11:34.263Z,5.88
2023-05-13T12:14:06.021Z,5.35
2023-05-13T12:16:34.245Z,5.10
2023-05-13T12:19:08.014Z,6.95
2023-05-13T12:21:39.235Z,5.97
2023-05-13T12:24:22.868Z,4.70
2023-05-13T12:26:50.239Z,8.55
2023-05-13T12:29:17.022Z,6.38
2023-05-13T12:32:15.164Z,4.25
2023-05-13T12:34:49.981Z,4.22
2023-05-13T12:37:24.577Z,4.40
2023-05-13T12:40:16.435Z,5.78
2023-05-13T12:42:51.986Z,5.22
2023-05-13T12:45:20.453Z,4.25
2023-05-13T12:48:01.418Z,4.65
2023-05-13T12:50:30.743Z,4.00
2023-05-13T12:53:00.772Z,4.90
2023-05-13T12:55:30.943Z,4.60
2023-05-13T12:58:06.251Z,6.20
2023-05-13T13:00:35.757Z,3.70
2023-05-13T13:03:03.083Z,4.53
2023-05-13T13:05:30.341Z,4.40
2023-05-13T13:08:07.917Z,3.83
2023-05-13T13:10:40.448Z,3.83
2023-05-13T13:13:15.943Z,4.28
2023-05-13T13:15:42.838Z,3.60
2023-05-13T13:18:18.302Z,6.35
2023-05-13T13:20:46.927Z,3.53
2023-05-13T13:23:26.230Z,3.55
2023-05-13T13:25:58.378Z,3.42
2023-05-13T13:28:27.451Z,3.58
2023-05-13T13:31:16.099Z,4.53
2023-05-13T13:33:42.908Z,5.20
2023-05-13T13:36:15.194Z,3.35
2023-05-13T13:38:42.089Z,3.60
2023-05-13T13:41:08.882Z,8.00
2023-05-13T13:43:37.561Z,6.22
2023-05-13T13:46:17.558Z,3.50
2023-05-13T13:49:03.897Z,3.42
2023-05-13T13:54:38.421Z,4.22
2023-05-13T13:57:32.389Z,3.83
2023-05-13T14:03:17.438Z,4.40
2023-05-13T14:06:15.023Z,3.30
2023-05-13T14:08:44.191Z,3.05
2023-05-13T14:11:34.852Z,7.97
2023-05-13T14:14:08.438Z,3.65
2023-05-13T14:16:39.158Z,3.83
2023-05-13T14:19:20.959Z,4.03
2023-05-13T14:22:11.138Z,5.35
2023-05-13T14:25:02.555Z,4.10
2023-05-13T14:27:45.266Z,3.13
2023-05-13T14:30:15.433Z,3.63
2023-05-13T14:33:50.460Z,4.18
2023-05-13T14:36:28.428Z,3.22
2023-05-13T14:39:06.266Z,5.07
2023-05-13T14:41:33.390Z,4.80
2023-05-13T14:44:34.454Z,3.60
2023-05-13T14:47:31.163Z,3.20
2023-05-13T14:50:07.786Z,3.58
2023-05-13T14:53:46.925Z,3.70
2023-05-13T14:56:22.577Z,8.02
2023-05-13T14:58:51.064Z,3.28
2023-05-13T15:01:48.515Z,3.58
2023-05-13T15:05:26.555Z,3.40
2023-05-13T15:08:02.203Z,3.10
2023-05-13T15:10:34.637Z,3.45
2023-05-13T15:13:13.075Z,2.88
2023-05-13T15:15:51.429Z,5.15
2023-05-13T15:18:18.317Z,3.08
2023-05-13T15:23:57.989Z,3.35
2023-05-13T15:26:30.133Z,5.75
2023-05-13T15:29:10.697Z,3.47
2023-05-13T15:31:40.274Z,5.50
2023-05-13T15:34:11.223Z,3.78
2023-05-13T15:36:41.131Z,3.53
2023-05-13T15:42:51.750Z,3.90
2023-05-13T15:45:19.879Z,3.45
2023-05-13T15:48:12.333Z,3.35
2023-05-13T15:50:46.405Z,4.90
2023-05-13T15:53:16.728Z,4.35
2023-05-13T15:55:48.630Z,3.25
2023-05-13T15:58:15.337Z,3.72
2023-05-13T16:00:42.133Z,3.50
2023-05-13T16:03:09.349Z,3.38
2023-05-13T16:11:28.773Z,4.03
2023-05-13T16:17:15.695Z,5.57
2023-05-13T16:19:43.787Z,3.88
2023-05-13T16:22:49.302Z,6.25
2023-05-13T16:29:20.877Z,3.60
2023-05-13T16:31:47.664Z,4.35
2023-05-13T16:48:51.099Z,3.83
2023-05-13T16:51:22.183Z,4.03
2023-05-13T16:53:55.658Z,3.97
2023-05-13T16:56:22.730Z,3.67
2023-05-13T16:58:49.636Z,3.97
2023-05-13T17:01:19.615Z,3.85
2023-05-13T17:03:51.850Z,3.83
2023-05-13T17:06:20.593Z,3.60
2023-05-13T17:08:56.004Z,4.95
2023-05-13T17:11:25.225Z,3.30
2023-05-13T17:13:53.682Z,6.68
2023-05-13T17:16:20.450Z,5.30
2023-05-13T17:18:49.810Z,2.97
2023-05-13T17:21:17.212Z,4.18
2023-05-13T17:23:44.034Z,3.67
2023-05-13T17:26:10.958Z,3.92
2023-05-13T17:28:43.115Z,6.18
2023-05-13T17:31:09.806Z,5.45
2023-05-13T17:33:36.628Z,4.70
2023-05-13T17:36:06.361Z,4.07
2023-05-13T17:38:33.359Z,4.80
2023-05-13T17:41:07.718Z,4.35
2023-05-13T17:43:34.671Z,4.63
2023-05-13T17:46:06.305Z,5.00
2023-05-13T17:48:33.283Z,4.53
2023-05-13T17:51:09.363Z,3.88
2023-05-13T17:53:36.513Z,4.35
2023-05-13T17:56:08.407Z,4.30
2023-05-13T17:58:35.118Z,4.35
2023-05-13T18:12:15.516Z,4.85
2023-05-13T18:14:46.450Z,4.40
2023-05-13T18:17:16.227Z,4.57
2023-05-13T18:36:10.211Z,4.78
2023-05-13T18:41:18.234Z,5.68
2023-05-13T18:43:47.697Z,6.28
2023-05-13T18:49:00.131Z,5.32
2023-05-13T18:51:29.794Z,5.32
2023-05-13T18:54:00.984Z,4.20
2023-05-13T18:59:16.014Z,4.47
2023-05-13T19:04:25.703Z,6.40
2023-05-13T19:25:47.880Z,6.13
2023-05-13T19:39:01.684Z,5.65
2023-05-13T20:19:51.218Z,6.53
2023-05-13T20:22:19.325Z,6.32
2023-05-13T20:24:47.917Z,9.32
2023-05-13T20:27:17.016Z,5.65
2023-05-13T20:29:47.472Z,6.38
2023-05-13T20:32:24.717Z,7.30
2023-05-13T20:34:52.893Z,6.35
2023-05-13T20:37:23.398Z,6.35
2023-05-13T20:39:50.683Z,7.20
2023-05-13T20:42:17.800Z,7.20
2023-05-13T20:44:46.329Z,6.50
2023-05-13T20:47:16.286Z,7.80
2023-05-13T20:49:46.607Z,8.13
2023-05-13T20:52:17.130Z,6.22
2023-05-13T20:54:44.341Z,6.18
2023-05-13T20:57:22.448Z,6.28
2023-05-13T20:59:50.482Z,6.53
2023-05-13T21:02:20.994Z,7.28
2023-05-13T21:04:47.909Z,7.40
2023-05-13T21:07:15.236Z,6.95
2023-05-13T21:09:43.249Z,6.22
2023-05-13T21:12:13.315Z,9.15
2023-05-13T21:14:44.669Z,10.32
2023-05-13T21:17:13.672Z,6.53
2023-05-13T21:19:40.585Z,6.47
2023-05-13T21:22:09.745Z,6.25
2023-05-13T21:24:36.556Z,8.30
2023-05-13T21:27:03.441Z,7.80
2023-05-13T21:29:30.407Z,7.70
2023-05-13T21:31:57.391Z,6.13
2023-05-13T21:34:30.326Z,7.13
2023-05-13T21:36:57.178Z,7.20
2023-05-13T21:39:23.995Z,6.07
2023-05-13T21:41:50.744Z,7.53
2023-05-13T21:44:17.482Z,6.63
2023-05-13T21:46:47.470Z,6.60
2023-05-13T21:49:14.449Z,6.82
2023-05-13T21:51:43.658Z,8.45
2023-05-13T21:54:18.723Z,8.10
2023-05-13T21:56:46.721Z,7.63
2023-05-13T21:59:13.711Z,7.57
2023-05-13T22:01:40.554Z,8.27
2023-05-13T22:04:09.033Z,6.88
2023-05-13T22:06:39.114Z,6.85
2023-05-13T22:09:13.104Z,7.15
2023-05-13T22:11:39.935Z,7.55
2023-05-13T22:14:11.262Z,7.13
2023-05-13T22:16:38.167Z,7.90
2023-05-13T22:19:14.097Z,8.50
2023-05-13T22:21:41.164Z,7.88
2023-05-13T22:24:19.060Z,8.73
2023-05-13T22:26:46.046Z,6.85
2023-05-13T22:29:17.854Z,8.25
2023-05-13T22:31:47.253Z,8.60
2023-05-13T22:34:14.088Z,8.48
2023-05-13T22:36:43.799Z,11.02
2023-05-13T22:39:21.294Z,8.35
2023-05-13T22:41:48.030Z,8.07
2023-05-13T22:44:14.789Z,8.55
2023-05-13T22:46:44.077Z,9.55
2023-05-13T22:49:14.272Z,8.20
2023-05-13T22:51:41.517Z,9.88
2023-05-13T22:54:08.468Z,10.95
2023-05-13T22:56:35.333Z,11.90
2023-05-13T22:59:02.231Z,11.57
2023-05-13T23:01:29.086Z,11.75
2023-05-13T23:03:56.055Z,12.10
2023-05-13T23:06:23.187Z,12.50
2023-05-13T23:08:55.718Z,13.82
2023-05-13T23:11:22.672Z,10.27
2023-05-13T23:13:49.523Z,9.82
2023-05-13T23:16:16.764Z,10.15
2023-05-13T23:18:43.776Z,9.27
2023-05-13T23:21:13.887Z,11.05
2023-05-13T23:23:40.612Z,9.93
2023-05-13T23:26:07.441Z,10.50
2023-05-13T23:28:34.411Z,8.43
2023-05-13T23:31:01.321Z,8.82
2023-05-13T23:33:29.096Z,8.57
2023-05-13T23:35:59.920Z,8.10
2023-05-13T23:38:27.032Z,9.68
2023-05-13T23:41:02.235Z,8.35
2023-05-13T23:43:29.164Z,9.50
2023-05-13T23:45:56.200Z,10.98
2023-05-13T23:48:23.195Z,11.73
2023-05-13T23:50:50.074Z,8.85
2023-05-13T23:53:16.848Z,10.15
2023-05-13T23:55:43.743Z,9.32
2023-05-13T23:58:20.737Z,8.90
